Time;durP1;ratioP1;P1;durP2;ratioP2;P2;SDS_P1;SDS_P2;PMS_P1;PMS_P2;Temp;Humidity;BMP_temperature;BMP_pressure;BME280_temperature;BME280_humidity;BME280_pressure;Samples;Min_cycle;Max_cycle;Signal;HPM_P1;HPM_P2
2023/05/16 03:58:00;;;;;;;4.32;2.90;;;;;;;12.33;100.00;99850.88;6549097;26;20079;-82
2023/05/16 04:01:03;;;;;;;5.12;3.00;;;;;;;12.29;100.00;99860.44;6585812;27;33922;-83
2023/05/16 04:04:06;;;;;;;3.22;2.95;;;;;;;12.30;100.00;99870.19;6585914;27;33944;-83
2023/05/16 04:07:09;;;;;;;6.80;2.90;;;;;;;12.29;100.00;99871.22;6585773;27;34737;-83
2023/05/16 04:10:13;;;;;;;3.92;3.33;;;;;;;12.35;100.00;99870.41;6603901;27;33900;-83
2023/05/16 04:13:16;;;;;;;3.90;3.40;;;;;;;12.39;100.00;99871.66;6608697;27;34028;-83
2023/05/16 04:16:19;;;;;;;4.22;3.35;;;;;;;12.45;100.00;99870.84;6608455;27;34267;-83
2023/05/16 04:19:22;;;;;;;4.90;2.92;;;;;;;12.57;100.00;99867.56;6586152;27;33403;-83
2023/05/16 04:22:25;;;;;;;3.22;2.95;;;;;;;12.56;100.00;99866.75;6605240;27;33813;-87
2023/05/16 04:25:28;;;;;;;3.22;2.92;;;;;;;12.56;100.00;99885.66;6605321;27;33841;-87
2023/05/16 04:28:31;;;;;;;3.58;2.67;;;;;;;12.59;100.00;99893.34;6567934;27;33983;-87
2023/05/16 04:31:35;;;;;;;3.50;2.90;;;;;;;12.63;100.00;99886.50;6567545;27;33449;-87
2023/05/16 04:34:39;;;;;;;4.18;3.00;;;;;;;12.64;100.00;99873.84;6567926;27;33872;-83
2023/05/16 04:37:42;;;;;;;3.25;2.70;;;;;;;12.66;100.00;99877.16;6549848;27;33850;-83
2023/05/16 04:40:45;;;;;;;3.60;2.90;;;;;;;12.66;100.00;99888.78;6567700;27;34581;-83
2023/05/16 04:43:48;;;;;;;3.87;2.80;;;;;;;12.69;100.00;99898.34;6550661;27;34393;-83
2023/05/16 04:46:52;;;;;;;3.00;2.75;;;;;;;12.67;100.00;99895.03;6585494;27;34818;-83
2023/05/16 04:49:54;;;;;;;3.03;2.47;;;;;;;12.69;100.00;99892.94;6585523;27;34009;-84
2023/05/16 04:52:58;;;;;;;5.12;2.90;;;;;;;12.71;100.00;99893.59;6598863;26;33990;-84
2023/05/16 04:56:00;;;;;;;4.53;2.90;;;;;;;12.73;100.00;99898.81;6623808;26;35355;-84
2023/05/16 04:59:03;;;;;;;2.97;2.70;;;;;;;12.76;100.00;99891.12;6612381;27;35020;-83
2023/05/16 05:02:06;;;;;;;3.00;2.35;;;;;;;12.78;100.00;99902.56;6586517;27;33977;-83
2023/05/16 05:05:10;;;;;;;2.92;2.60;;;;;;;12.78;100.00;99907.97;6567795;27;33998;-83
2023/05/16 05:08:12;;;;;;;4.35;2.80;;;;;;;12.77;100.00;99918.94;6567908;27;33959;-83
2023/05/16 05:11:16;;;;;;;3.78;2.42;;;;;;;12.76;100.00;99917.31;6586504;27;33404;-83
2023/05/16 05:14:18;;;;;;;3.17;2.30;;;;;;;12.75;100.00;99913.75;6585632;27;33782;-83
2023/05/16 05:17:22;;;;;;;2.62;2.42;;;;;;;12.77;100.00;99911.69;6585066;27;34914;-83
2023/05/16 05:20:26;;;;;;;3.95;2.83;;;;;;;12.81;100.00;99912.09;6586367;27;34010;-83
2023/05/16 05:23:29;;;;;;;3.00;2.70;;;;;;;12.81;100.00;99923.75;6585142;27;34167;-83
2023/05/16 05:26:32;;;;;;;3.72;2.85;;;;;;;12.81;100.00;99933.72;6586885;27;33949;-82
2023/05/16 05:29:36;;;;;;;3.72;2.62;;;;;;;12.71;100.00;99926.81;6567284;27;33552;-83
2023/05/16 05:32:38;;;;;;;2.72;2.50;;;;;;;12.70;100.00;99917.06;6566893;27;33892;-83
2023/05/16 05:35:41;;;;;;;4.85;2.75;;;;;;;12.73;100.00;99904.19;6585210;27;35027;-83
2023/05/16 05:38:44;;;;;;;3.58;2.90;;;;;;;12.65;100.00;99908.72;6568326;27;34413;-83
2023/05/16 05:41:47;;;;;;;5.12;2.80;;;;;;;12.65;100.00;99916.84;6587137;27;34093;-83
2023/05/16 05:44:50;;;;;;;3.97;2.78;;;;;;;12.58;100.00;99915.16;6605025;27;34388;-83
2023/05/16 05:47:53;;;;;;;7.53;3.00;;;;;;;12.53;100.00;99914.94;6605322;27;34245;-83
2023/05/16 05:50:55;;;;;;;3.28;2.92;;;;;;;12.47;100.00;99912.00;6568389;27;33546;-83
2023/05/16 05:53:58;;;;;;;5.37;3.00;;;;;;;12.54;100.00;99909.31;6568059;27;33903;-83
2023/05/16 05:57:01;;;;;;;3.30;3.00;;;;;;;12.51;100.00;99912.41;6567768;27;33560;-83
2023/05/16 06:00:05;;;;;;;3.85;2.75;;;;;;;12.49;100.00;99911.81;6585121;27;33480;-83
2023/05/16 06:03:08;;;;;;;3.83;3.00;;;;;;;12.50;100.00;99915.34;6585638;27;34960;-83
2023/05/16 06:06:13;;;;;;;3.12;2.60;;;;;;;12.53;100.00;99915.75;6567921;27;34091;-83
2023/05/16 06:09:16;;;;;;;3.05;2.85;;;;;;;12.55;100.00;99911.00;6591039;27;33419;-83
2023/05/16 06:12:19;;;;;;;3.20;2.90;;;;;;;12.55;100.00;99912.84;6628593;27;34163;-83
2023/05/16 06:15:21;;;;;;;4.20;3.10;;;;;;;12.54;100.00;99900.38;6607990;27;34256;-83
2023/05/16 06:18:24;;;;;;;4.53;2.80;;;;;;;12.62;100.00;99890.25;6587417;27;34191;-83
2023/05/16 06:21:27;;;;;;;2.85;2.53;;;;;;;12.64;100.00;99890.06;6609814;27;33843;-83
2023/05/16 06:24:30;;;;;;;5.20;2.50;;;;;;;12.71;100.00;99896.28;6625623;26;35304;-83
2023/05/16 06:27:33;;;;;;;3.87;2.92;;;;;;;12.78;100.00;99899.84;6613964;26;34427;-83
2023/05/16 06:30:36;;;;;;;3.47;2.78;;;;;;;12.76;100.00;99896.50;6605113;27;33645;-83
2023/05/16 06:33:38;;;;;;;5.32;2.72;;;;;;;12.74;100.00;99900.47;6587293;27;34394;-84
2023/05/16 06:36:43;;;;;;;3.75;3.00;;;;;;;12.67;100.00;99890.47;6586885;27;33680;-82
2023/05/16 06:39:45;;;;;;;3.70;2.58;;;;;;;12.66;100.00;99887.94;6586707;27;34678;-82
2023/05/16 06:42:48;;;;;;;2.95;2.65;;;;;;;12.63;100.00;99882.97;6586204;27;33936;-83
2023/05/16 06:45:51;;;;;;;3.50;3.20;;;;;;;12.57;100.00;99889.19;6613231;27;33862;-83
2023/05/16 06:48:54;;;;;;;3.00;2.70;;;;;;;12.60;100.00;99892.31;6572448;27;34358;-87
2023/05/16 06:51:57;;;;;;;3.47;3.00;;;;;;;12.65;100.00;99897.09;6567241;27;33948;-87
2023/05/16 06:55:00;;;;;;;3.08;2.60;;;;;;;12.65;100.00;99891.69;6605297;27;35393;-87
2023/05/16 06:58:02;;;;;;;4.05;2.85;;;;;;;12.64;100.00;99890.88;6605291;27;34055;-87
2023/05/16 07:01:05;;;;;;;4.28;2.97;;;;;;;12.66;100.00;99893.34;6566593;27;34041;-83
2023/05/16 07:04:08;;;;;;;3.95;2.90;;;;;;;12.64;100.00;99890.88;6566497;27;33558;-83
2023/05/16 07:07:12;;;;;;;5.00;3.10;;;;;;;12.56;100.00;99891.06;6604317;27;33936;-83
2023/05/16 07:10:15;;;;;;;5.50;3.47;;;;;;;12.59;100.00;99893.34;6568043;27;34272;-83
2023/05/16 07:13:18;;;;;;;2.87;2.67;;;;;;;12.62;100.00;99898.34;6605337;27;34456;-84
2023/05/16 07:16:21;;;;;;;3.37;3.08;;;;;;;12.65;100.00;99897.09;6567928;27;33909;-84
2023/05/16 07:19:24;;;;;;;5.22;3.20;;;;;;;12.68;100.00;99896.69;6567602;27;35168;-84
2023/05/16 07:22:27;;;;;;;4.28;3.05;;;;;;;12.76;100.00;99901.09;6585093;27;33945;-84
2023/05/16 07:25:31;;;;;;;4.87;3.12;;;;;;;12.75;100.00;99899.41;6585880;27;34235;-84
2023/05/16 07:28:36;;;;;;;6.68;3.65;;;;;;;12.76;100.00;99898.38;6585951;27;33799;-84
2023/05/16 07:31:39;;;;;;;4.60;3.62;;;;;;;12.82;100.00;99886.78;6605335;26;34402;-84
2023/05/16 07:34:42;;;;;;;5.47;4.12;;;;;;;12.85;100.00;99887.19;6618843;27;35112;-84
2023/05/16 07:37:45;;;;;;;5.22;4.18;;;;;;;12.94;100.00;99880.53;6585511;27;33543;-84
2023/05/16 07:40:47;;;;;;;9.35;4.90;;;;;;;12.97;100.00;99870.38;6604251;27;34977;-84
2023/05/16 07:43:52;;;;;;;5.93;4.18;;;;;;;12.84;100.00;99880.13;6568889;27;34565;-84
2023/05/16 07:46:55;;;;;;;5.80;4.47;;;;;;;12.78;100.00;99885.50;6585639;27;34645;-85
2023/05/16 07:49:58;;;;;;;6.00;4.03;;;;;;;12.75;100.00;99883.19;6604753;27;33590;-84
2023/05/16 07:53:01;;;;;;;7.20;4.43;;;;;;;12.76;100.00;99884.88;6584712;27;33610;-84
2023/05/16 07:56:04;;;;;;;6.60;4.82;;;;;;;12.76;100.00;99877.59;6585494;27;33517;-84
2023/05/16 07:59:07;;;;;;;7.50;4.43;;;;;;;12.76;100.00;99877.59;6584777;27;34978;-84
2023/05/16 08:02:10;;;;;;;7.28;4.57;;;;;;;12.74;100.00;99874.28;6586464;27;33994;-84
2023/05/16 08:05:13;;;;;;;7.10;4.93;;;;;;;12.76;100.00;99869.50;6614467;27;34999;-85
2023/05/16 08:08:16;;;;;;;9.88;5.35;;;;;;;12.74;100.00;99868.03;6600380;27;34190;-84
2023/05/16 08:11:21;;;;;;;8.75;5.72;;;;;;;12.69;100.00;99872.19;6603136;27;34721;-83
2023/05/16 08:14:23;;;;;;;8.02;5.53;;;;;;;12.74;100.00;99868.88;6605671;27;35450;-84
2023/05/16 08:17:26;;;;;;;12.57;7.18;;;;;;;12.82;100.00;99881.38;6626102;27;34336;-85
2023/05/16 08:20:29;;;;;;;8.88;6.10;;;;;;;12.73;100.00;99871.78;6608496;27;35548;-85
2023/05/16 08:23:32;;;;;;;10.18;5.72;;;;;;;12.80;100.00;99881.56;6625470;27;35320;-84
2023/05/16 08:26:36;;;;;;;11.30;5.80;;;;;;;12.85;100.00;99886.34;6586836;27;35228;-85
2023/05/16 08:29:39;;;;;;;9.68;5.62;;;;;;;12.92;100.00;99879.09;6593640;27;34679;-85
2023/05/16 08:32:41;;;;;;;9.98;6.32;;;;;;;12.98;100.00;99882.84;6591968;27;35276;-84
2023/05/16 08:35:45;;;;;;;10.25;5.95;;;;;;;12.98;100.00;99888.25;6590475;27;35360;-84
2023/05/16 08:38:49;;;;;;;13.30;5.95;;;;;;;13.08;100.00;99877.88;6583170;27;33991;-85
2023/05/16 08:41:52;;;;;;;8.82;5.55;;;;;;;13.06;100.00;99877.25;6603355;27;33860;-83
2023/05/16 08:44:54;;;;;;;7.50;5.35;;;;;;;13.02;100.00;99866.03;6584616;27;34070;-83
2023/05/16 08:48:00;;;;;;;8.63;4.97;;;;;;;13.08;100.00;99854.38;6603974;27;33978;-83
2023/05/16 08:51:05;;;;;;;7.85;5.30;;;;;;;13.08;100.00;99848.16;6606675;27;33786;-83
2023/05/16 08:54:12;;;;;;;9.07;5.57;;;;;;;13.04;100.00;99855.81;6585241;27;34589;-84
2023/05/16 08:57:16;;;;;;;11.10;5.47;;;;;;;13.12;100.00;99854.78;6584144;27;34127;-84
2023/05/16 09:00:20;;;;;;;8.80;5.90;;;;;;;13.24;100.00;99855.00;6584086;27;33859;-83
2023/05/16 09:03:26;;;;;;;9.75;5.78;;;;;;;13.31;100.00;99864.00;6584623;27;34063;-87
2023/05/16 09:06:33;;;;;;;7.95;4.93;;;;;;;13.35;100.00;99852.53;6603398;27;33889;-87
2023/05/16 09:09:36;;;;;;;9.05;4.65;;;;;;;13.39;100.00;99852.94;6583234;27;34638;-84
2023/05/16 09:12:40;;;;;;;9.48;5.10;;;;;;;13.35;100.00;99843.59;6565801;27;34088;-83
2023/05/16 09:15:44;;;;;;;6.70;4.62;;;;;;;13.44;100.00;99850.44;6604075;27;33932;-84
2023/05/16 09:18:56;;;;;;;9.55;5.05;;;;;;;13.44;100.00;99844.22;6584688;27;33832;-84
2023/05/16 09:22:02;;;;;;;11.00;5.55;;;;;;;13.45;100.00;99848.56;6605634;27;34529;-84
2023/05/16 09:25:06;;;;;;;9.77;5.80;;;;;;;13.46;100.00;99851.06;6605509;27;33645;-84
2023/05/16 09:28:30;;;;;;;10.00;5.70;;;;;;;13.46;100.00;99845.66;6589038;27;33941;-84
2023/05/16 09:31:36;;;;;;;7.47;5.53;;;;;;;13.47;100.00;99852.72;6585483;27;34800;-84
2023/05/16 09:34:48;;;;;;;7.57;5.45;;;;;;;13.51;100.00;99848.59;6585595;27;34930;-84
2023/05/16 09:37:53;;;;;;;7.35;4.80;;;;;;;13.46;100.00;99851.06;6604880;27;33484;-84
2023/05/16 09:40:56;;;;;;;8.82;5.47;;;;;;;13.43;100.00;99851.50;6604551;27;34126;-84
2023/05/16 09:44:03;;;;;;;10.32;5.75;;;;;;;13.43;100.00;99846.09;6605310;27;33764;-84
2023/05/16 09:47:06;;;;;;;7.78;5.95;;;;;;;13.42;100.00;99836.28;6604719;27;33805;-83
2023/05/16 09:50:09;;;;;;;10.07;6.22;;;;;;;13.45;100.00;99852.09;6605146;27;33587;-83
2023/05/16 09:53:12;;;;;;;9.10;5.85;;;;;;;13.47;100.00;99847.31;6604095;27;34010;-83
2023/05/16 09:56:15;;;;;;;8.98;6.10;;;;;;;13.43;100.00;99848.78;6605245;27;33381;-83
2023/05/16 09:59:18;;;;;;;8.50;5.43;;;;;;;13.47;100.00;99844.62;6585390;27;34021;-83
2023/05/16 10:02:22;;;;;;;8.07;4.90;;;;;;;13.47;100.00;99841.91;6606060;27;33611;-83
2023/05/16 10:05:28;;;;;;;7.30;4.62;;;;;;;13.44;100.00;99842.34;6585545;27;33779;-84
2023/05/16 10:08:35;;;;;;;7.40;5.57;;;;;;;13.53;100.00;99837.53;6585622;27;33468;-83
2023/05/16 10:11:41;;;;;;;9.60;5.50;;;;;;;13.54;100.00;99841.91;6625366;27;35239;-84
2023/05/16 10:14:46;;;;;;;9.90;5.57;;;;;;;13.48;100.00;99843.56;6595426;27;34342;-84
2023/05/16 10:17:52;;;;;;;7.20;4.07;;;;;;;13.44;100.00;99838.81;6586915;27;34145;-84
2023/05/16 10:20:56;;;;;;;6.45;4.12;;;;;;;13.49;100.00;99833.59;6606351;27;33513;-84
2023/05/16 10:24:05;;;;;;;5.78;4.32;;;;;;;13.59;100.00;99839.41;6606468;27;33848;-83
2023/05/16 10:27:08;;;;;;;5.47;3.78;;;;;;;13.53;100.00;99832.13;6613139;27;34337;-84
2023/05/16 10:30:12;;;;;;;7.07;4.60;;;;;;;13.52;100.00;99820.50;6591357;27;34023;-83
2023/05/16 10:33:17;;;;;;;8.35;4.05;;;;;;;13.56;100.00;99818.19;6585957;27;34319;-85
2023/05/16 10:36:20;;;;;;;4.97;3.83;;;;;;;13.61;100.00;99818.37;6586096;27;33844;-85
2023/05/16 10:39:23;;;;;;;6.53;3.92;;;;;;;13.74;100.00;99814.81;6605674;27;34101;-85
2023/05/16 10:42:26;;;;;;;6.07;4.03;;;;;;;13.70;100.00;99808.19;6567226;27;33785;-83
2023/05/16 10:45:29;;;;;;;5.53;4.03;;;;;;;13.75;100.00;99803.78;6585905;27;33898;-84
2023/05/16 10:48:35;;;;;;;6.78;4.35;;;;;;;13.84;100.00;99802.50;6606651;27;33576;-84
2023/05/16 10:51:38;;;;;;;4.80;3.65;;;;;;;13.84;100.00;99798.97;6612584;26;33752;-85
2023/05/16 10:54:43;;;;;;;6.70;4.28;;;;;;;13.80;100.00;99809.38;6610491;26;34504;-85
2023/05/16 10:57:46;;;;;;;7.45;4.32;;;;;;;13.82;100.00;99795.66;6586502;27;35297;-84
2023/05/16 11:01:09;;;;;;;6.45;4.65;;;;;;;13.87;100.00;99786.91;6567180;27;34654;-85
2023/05/16 11:04:12;;;;;;;8.15;4.93;;;;;;;13.84;100.00;99777.34;6589160;27;33830;-85
2023/05/16 11:07:18;;;;;;;8.35;5.40;;;;;;;13.86;100.00;99774.41;6567460;27;33789;-85
2023/05/16 11:10:21;;;;;;;9.35;5.82;;;;;;;13.92;100.00;99762.72;6604788;27;33828;-85
2023/05/16 11:13:24;;;;;;;9.90;6.05;;;;;;;13.96;100.00;99762.09;6549668;27;33916;-85
2023/05/16 11:16:28;;;;;;;10.98;6.78;;;;;;;14.03;100.00;99762.88;6569364;27;34722;-85
2023/05/16 11:19:34;;;;;;;13.73;7.90;;;;;;;13.99;100.00;99763.53;6608281;27;33944;-85
2023/05/16 11:22:40;;;;;;;10.13;7.37;;;;;;;14.01;100.00;99754.16;6606822;27;34687;-85
2023/05/16 11:26:09;;;;;;;11.85;7.97;;;;;;;14.10;100.00;99753.88;6571003;27;33839;-84
2023/05/16 11:29:12;;;;;;;14.05;7.90;;;;;;;14.25;100.00;99738.19;6580124;27;34217;-84
2023/05/16 11:32:20;;;;;;;8.45;6.43;;;;;;;14.42;100.00;99736.63;6585102;27;34037;-84
2023/05/16 11:35:23;;;;;;;8.20;6.82;;;;;;;14.49;100.00;99721.16;6602946;27;34656;-84
2023/05/16 11:38:29;;;;;;;10.27;6.70;;;;;;;14.64;100.00;99726.28;6585700;27;33770;-84
2023/05/16 11:41:32;;;;;;;10.15;6.93;;;;;;;14.73;100.00;99721.41;6604754;27;34027;-84
2023/05/16 11:44:35;;;;;;;8.02;5.70;;;;;;;14.71;100.00;99739.75;6568084;27;34598;-84
2023/05/16 11:47:39;;;;;;;8.60;5.32;;;;;;;14.71;100.00;99737.91;6586097;27;34338;-84
2023/05/16 11:50:43;;;;;;;6.68;5.37;;;;;;;14.51;100.00;99732.63;6605643;27;33991;-85
2023/05/16 11:53:49;;;;;;;6.60;5.72;;;;;;;14.42;100.00;99728.50;6567399;27;34505;-84
2023/05/16 11:56:52;;;;;;;5.90;5.30;;;;;;;14.48;100.00;99721.38;6605819;27;34911;-88
2023/05/16 11:59:55;;;;;;;7.47;5.57;;;;;;;14.42;100.00;99719.53;6586835;27;34627;-89
2023/05/16 12:03:03;;;;;;;7.07;5.03;;;;;;;14.43;100.00;99713.91;6585710;27;34086;-85
2023/05/16 12:06:07;;;;;;;7.53;5.05;;;;;;;14.61;100.00;99710.47;6586153;27;34598;-85
2023/05/16 12:09:14;;;;;;;6.93;4.53;;;;;;;14.65;100.00;99706.25;6567010;27;33809;-84
2023/05/16 12:12:21;;;;;;;6.75;4.57;;;;;;;14.82;100.00;99698.41;6586088;27;33897;-84
2023/05/16 12:15:24;;;;;;;5.50;3.87;;;;;;;14.94;100.00;99693.09;6585546;27;34672;-84
2023/05/16 12:18:28;;;;;;;6.35;4.40;;;;;;;14.88;100.00;99697.50;6585305;27;33893;-85
2023/05/16 12:21:31;;;;;;;9.05;4.80;;;;;;;14.85;100.00;99699.84;6567370;27;33846;-84
2023/05/16 12:24:39;;;;;;;7.45;4.68;;;;;;;14.96;100.00;99697.22;6584724;27;34007;-84
2023/05/16 12:27:42;;;;;;;6.47;4.32;;;;;;;14.90;100.00;99708.16;6604109;27;35073;-84
2023/05/16 12:30:47;;;;;;;7.32;4.18;;;;;;;14.94;100.00;99703.94;6585967;27;34024;-84
2023/05/16 12:33:53;;;;;;;5.45;3.92;;;;;;;15.02;100.00;99710.97;6585015;27;34552;-84
2023/05/16 12:36:58;;;;;;;8.65;4.30;;;;;;;15.03;100.00;99709.91;6586055;27;33091;-84
2023/05/16 12:40:02;;;;;;;6.22;4.37;;;;;;;14.90;100.00;99711.69;6584626;27;33485;-84
2023/05/16 12:43:18;;;;;;;5.45;4.03;;;;;;;14.92;100.00;99712.28;6585145;27;33920;-84
2023/05/16 12:46:21;;;;;;;5.93;4.00;;;;;;;14.87;100.00;99703.16;6604649;27;34699;-84
2023/05/16 12:49:26;;;;;;;4.82;3.50;;;;;;;14.93;100.00;99710.41;6604336;27;33783;-84
2023/05/16 12:52:29;;;;;;;4.28;3.83;;;;;;;15.10;100.00;99697.13;6567264;27;34200;-83
2023/05/16 12:55:32;;;;;;;5.85;3.62;;;;;;;15.11;100.00;99699.59;6598380;27;34691;-83
2023/05/16 12:58:34;;;;;;;5.95;3.80;;;;;;;15.03;100.00;99708.00;6569750;27;35441;-83
2023/05/16 13:01:39;;;;;;;5.20;3.90;;;;;;;15.06;100.00;99699.41;6577099;27;33794;-83
2023/05/16 13:04:42;;;;;;;7.75;4.25;;;;;;;15.04;100.00;99698.00;6578334;27;33608;-83
2023/05/16 13:07:45;;;;;;;7.55;4.12;;;;;;;14.98;100.00;99699.75;6558513;27;34593;-83
2023/05/16 13:10:47;;;;;;;5.62;4.53;;;;;;;15.01;100.00;99702.00;6578820;27;33979;-83
2023/05/16 13:13:53;;;;;;;6.07;4.37;;;;;;;15.04;100.00;99695.31;6577212;27;34007;-83
2023/05/16 13:16:57;;;;;;;7.93;4.57;;;;;;;15.05;100.00;99684.22;6561382;27;34150;-83
2023/05/16 13:20:01;;;;;;;7.32;4.68;;;;;;;15.02;100.00;99676.53;6601727;27;33975;-83
2023/05/16 13:23:04;;;;;;;10.25;4.72;;;;;;;14.91;100.00;99683.50;6584597;27;35347;-84
2023/05/16 13:26:08;;;;;;;6.43;4.35;;;;;;;14.93;100.00;99657.03;6577757;27;33961;-83
2023/05/16 13:29:12;;;;;;;5.30;4.10;;;;;;;15.02;100.00;99662.97;6577545;27;34754;-83
2023/05/16 13:32:15;;;;;;;8.88;4.55;;;;;;;15.01;100.00;99657.81;6576331;27;34589;-83
2023/05/16 13:35:18;;;;;;;8.20;4.37;;;;;;;15.07;100.00;99652.31;6577137;27;34074;-83
2023/05/16 13:38:21;;;;;;;6.35;4.30;;;;;;;15.14;100.00;99642.19;6576819;27;34310;-83
2023/05/16 13:41:24;;;;;;;7.45;4.87;;;;;;;15.19;100.00;99638.81;6557874;27;34346;-87
2023/05/16 13:44:26;;;;;;;7.55;5.25;;;;;;;15.32;100.00;99621.56;6577283;27;34651;-87
2023/05/16 13:47:29;;;;;;;8.32;4.80;;;;;;;15.64;100.00;99608.62;6556925;27;34224;-88
2023/05/16 13:50:33;;;;;;;5.57;4.30;;;;;;;15.90;100.00;99610.16;6576395;27;33908;-88
2023/05/16 13:53:38;;;;;;;7.15;4.37;;;;;;;16.08;100.00;99601.94;6576390;27;33830;-84
2023/05/16 13:56:41;;;;;;;6.70;4.37;;;;;;;16.32;100.00;99616.41;6578061;27;33891;-84
2023/05/16 13:59:43;;;;;;;8.63;5.18;;;;;;;16.36;100.00;99616.75;6605008;27;34686;-83
2023/05/16 14:03:13;;;;;;;6.32;4.78;;;;;;;16.36;100.00;99611.31;6575853;27;34024;-83
2023/05/16 14:06:18;;;;;;;7.00;4.50;;;;;;;16.60;100.00;99609.44;6567836;27;34244;-83
2023/05/16 14:09:21;;;;;;;5.57;4.15;;;;;;;16.77;100.00;99601.44;6587454;27;33614;-83
2023/05/16 14:12:24;;;;;;;8.18;4.12;;;;;;;16.95;100.00;99595.88;6592868;27;34677;-82
2023/05/16 14:15:26;;;;;;;9.07;4.50;;;;;;;17.39;100.00;99590.78;6609345;27;34077;-83
2023/05/16 14:18:30;;;;;;;8.48;3.90;;;;;;;17.24;100.00;99590.47;6605532;27;33817;-82
2023/05/16 14:21:33;;;;;;;6.90;3.83;;;;;;;16.97;100.00;99593.75;6586615;27;34012;-83
2023/05/16 14:24:36;;;;;;;4.65;3.53;;;;;;;16.91;100.00;99594.69;6605485;27;34105;-83
2023/05/16 14:27:39;;;;;;;8.30;4.20;;;;;;;16.83;100.00;99600.50;6610397;27;33961;-82
2023/05/16 14:30:42;;;;;;;4.87;3.72;;;;;;;16.69;100.00;99597.16;6569269;27;33830;-82
2023/05/16 14:33:46;;;;;;;6.65;3.20;;;;;;;16.65;100.00;99601.41;6585305;27;34241;-82
2023/05/16 14:36:52;;;;;;;8.27;3.92;;;;;;;16.56;100.00;99600.13;6605046;27;34225;-82
2023/05/16 14:39:56;;;;;;;5.47;4.10;;;;;;;16.51;100.00;99621.72;6584603;27;34024;-82
2023/05/16 14:42:59;;;;;;;5.22;4.10;;;;;;;16.45;100.00;99614.53;6567568;27;33944;-83
2023/05/16 14:46:01;;;;;;;7.72;4.47;;;;;;;16.39;100.00;99616.28;6576704;27;239900;-82
2023/05/16 14:49:05;;;;;;;6.93;3.97;;;;;;;16.30;100.00;99612.28;6567441;27;34276;-82
2023/05/16 14:52:07;;;;;;;5.62;4.20;;;;;;;16.12;100.00;99623.19;6585341;27;33908;-82
2023/05/16 14:55:12;;;;;;;8.52;4.60;;;;;;;15.93;100.00;99622.44;6584416;27;33479;-82
2023/05/16 14:58:15;;;;;;;6.90;4.75;;;;;;;15.71;100.00;99620.25;6566952;27;34027;-82
2023/05/16 15:01:19;;;;;;;6.93;4.18;;;;;;;15.50;100.00;99612.56;6585725;27;34331;-82
2023/05/16 15:04:22;;;;;;;7.25;4.80;;;;;;;15.37;100.00;99610.88;6567542;27;33445;-82
2023/05/16 15:07:25;;;;;;;8.07;4.70;;;;;;;15.27;100.00;99610.56;6567375;27;33600;-82
2023/05/16 15:10:27;;;;;;;10.48;5.43;;;;;;;15.17;100.00;99606.50;6585011;27;34598;-82
2023/05/16 15:13:31;;;;;;;12.25;5.65;;;;;;;15.13;100.00;99610.72;6585304;27;34123;-82
2023/05/16 15:16:33;;;;;;;6.32;5.15;;;;;;;15.12;100.00;99606.38;6585178;27;33854;-82
2023/05/16 15:19:37;;;;;;;12.73;5.80;;;;;;;15.15;100.00;99610.50;6586160;27;33648;-82
2023/05/16 15:22:40;;;;;;;12.25;5.85;;;;;;;15.10;100.00;99608.47;6568096;27;33987;-82
2023/05/16 15:25:43;;;;;;;10.52;5.70;;;;;;;15.15;100.00;99615.91;6585484;27;34328;-82
2023/05/16 15:28:46;;;;;;;8.93;5.62;;;;;;;15.08;100.00;99621.41;6585462;27;34545;-82
2023/05/16 15:31:49;;;;;;;6.60;4.70;;;;;;;15.07;100.00;99613.53;6567181;27;34049;-82
2023/05/16 15:34:53;;;;;;;8.07;5.05;;;;;;;15.03;100.00;99618.53;6567919;27;34957;-82
2023/05/16 15:37:58;;;;;;;11.35;5.82;;;;;;;15.03;100.00;99615.00;6586830;27;33912;-83
2023/05/16 15:41:04;;;;;;;10.02;5.50;;;;;;;15.03;100.00;99598.75;6625601;26;34237;-87
2023/05/16 15:44:27;;;;;;;9.02;5.90;;;;;;;15.09;100.00;99604.13;6596514;27;34235;-82
2023/05/16 15:47:31;;;;;;;11.07;5.90;;;;;;;15.05;100.00;99602.06;6585408;27;33576;-83
2023/05/16 15:50:34;;;;;;;9.43;5.53;;;;;;;15.02;100.00;99589.78;6567456;27;34778;-83
2023/05/16 15:53:36;;;;;;;10.98;6.00;;;;;;;15.00;100.00;99594.59;6605128;27;34343;-83
2023/05/16 15:56:40;;;;;;;10.57;5.70;;;;;;;14.95;100.00;99584.47;6585094;26;35023;-83
